Time;durP1;ratioP1;P1;durP2;ratioP2;P2;SDS_P1;SDS_P2;PMS_P1;PMS_P2;Temp;Humidity;BMP_temperature;BMP_pressure;BME280_temperature;BME280_humidity;BME280_pressure;Samples;Min_cycle;Max_cycle;Signal;HPM_P1;HPM_P2
2020/12/01 00:01:33;;;;;;;23.90;18.00;;;;;;;6.01;68.45;101019.44;6242967;28;20229;-60
2020/12/01 00:04:53;;;;;;;22.87;18.17;;;;;;;5.69;69.92;101019.88;6250002;28;20237;-60
2020/12/01 00:08:14;;;;;;;22.10;18.13;;;;;;;6.04;68.82;101016.91;6232817;28;20236;-59
2020/12/01 00:11:34;;;;;;;21.20;16.47;;;;;;;6.08;68.31;101016.97;6231165;28;20264;-59
2020/12/01 00:14:55;;;;;;;23.57;17.03;;;;;;;5.98;68.87;101001.31;6244908;28;20221;-59
2020/12/01 00:18:15;;;;;;;19.77;16.87;;;;;;;6.21;67.80;101006.78;6231735;28;20224;-60
2020/12/01 00:21:36;;;;;;;20.73;16.00;;;;;;;6.07;68.70;101001.44;6235242;28;20650;-60
2020/12/01 00:24:57;;;;;;;20.57;16.50;;;;;;;6.13;68.36;100998.03;6243825;28;20237;-59
2020/12/01 00:28:17;;;;;;;20.37;15.60;;;;;;;6.44;67.56;100984.63;6248189;28;20218;-60
2020/12/01 00:31:38;;;;;;;18.30;15.97;;;;;;;6.29;68.39;100992.22;6233872;28;20517;-58
2020/12/01 00:34:59;;;;;;;19.50;15.47;;;;;;;6.56;66.54;100988.19;6249516;28;20608;-59
2020/12/01 00:38:20;;;;;;;18.90;16.93;;;;;;;6.51;67.20;100982.97;6249963;28;20549;-59
2020/12/01 00:41:41;;;;;;;18.70;16.67;;;;;;;6.40;67.66;100990.63;6224441;28;20235;-60
2020/12/01 00:45:01;;;;;;;21.30;16.17;;;;;;;6.29;67.95;100987.03;6241242;28;20233;-60
2020/12/01 00:48:22;;;;;;;20.03;16.10;;;;;;;6.26;67.97;100987.88;6248653;28;20249;-60
2020/12/01 00:51:43;;;;;;;19.17;16.00;;;;;;;6.11;69.35;100978.22;6232816;28;20232;-59
2020/12/01 00:55:04;;;;;;;18.37;16.07;;;;;;;6.47;67.38;100979.47;6241058;28;20224;-60
2020/12/01 00:58:26;;;;;;;22.50;17.63;;;;;;;6.36;68.13;100978.50;6251265;28;20226;-59
2020/12/01 01:02:06;;;;;;;19.77;17.47;;;;;;;6.34;67.80;100966.38;6236698;28;20629;-60
2020/12/01 01:05:27;;;;;;;22.23;17.80;;;;;;;6.33;67.74;100968.13;6235396;28;20225;-60
2020/12/01 01:08:48;;;;;;;24.53;18.70;;;;;;;6.39;67.70;100965.59;6255494;28;20229;-60
2020/12/01 01:12:08;;;;;;;24.10;18.63;;;;;;;6.25;68.75;100965.44;6240632;28;20882;-60
2020/12/01 01:15:31;;;;;;;23.80;18.87;;;;;;;6.39;68.43;100963.00;6245763;28;20232;-60
2020/12/01 01:18:52;;;;;;;23.70;18.87;;;;;;;6.58;66.73;100968.38;6249810;28;20227;-60
2020/12/01 01:22:13;;;;;;;21.73;17.83;;;;;;;6.49;67.45;100964.84;6247232;28;20227;-60
2020/12/01 01:25:33;;;;;;;25.20;20.73;;;;;;;6.38;68.00;100963.88;6256972;28;20327;-60
2020/12/01 01:28:53;;;;;;;23.77;19.10;;;;;;;6.43;68.00;100959.59;6260804;28;20675;-61
2020/12/01 01:32:14;;;;;;;22.77;19.70;;;;;;;6.44;67.46;100961.34;6230936;28;20227;-59
2020/12/01 01:35:35;;;;;;;21.83;18.20;;;;;;;6.64;66.66;100964.13;6230773;28;20240;-61
2020/12/01 01:38:55;;;;;;;22.27;18.37;;;;;;;6.49;67.49;100958.78;6252684;28;20272;-61
2020/12/01 01:42:16;;;;;;;23.90;17.53;;;;;;;6.66;66.95;100966.72;6236804;28;20228;-60
2020/12/01 01:45:38;;;;;;;23.17;19.77;;;;;;;6.56;67.39;100959.72;6242828;28;20237;-60
2020/12/01 01:49:00;;;;;;;21.97;19.53;;;;;;;6.64;67.27;100963.25;6258909;28;20237;-58
2020/12/01 01:52:27;;;;;;;23.43;19.30;;;;;;;6.51;67.10;100970.03;6241145;28;20234;-60
2020/12/01 01:55:48;;;;;;;24.30;21.30;;;;;;;6.46;68.10;100963.94;6242674;28;20538;-60
2020/12/01 01:59:11;;;;;;;25.17;21.47;;;;;;;6.55;67.44;100971.78;6240265;28;20236;-60
2020/12/01 02:02:32;;;;;;;22.67;19.37;;;;;;;6.42;68.37;100963.06;6248376;28;20230;-60
2020/12/01 02:05:53;;;;;;;23.53;20.13;;;;;;;6.29;68.61;100962.03;6236963;28;20225;-61
2020/12/01 02:09:16;;;;;;;23.30;19.70;;;;;;;6.10;69.61;100955.78;6257077;28;20232;-60
2020/12/01 02:12:41;;;;;;;22.63;20.20;;;;;;;6.33;69.09;100946.56;6243596;28;20231;-60
2020/12/01 02:16:01;;;;;;;22.67;19.17;;;;;;;6.59;67.75;100959.75;6232365;28;20229;-60
2020/12/01 02:19:24;;;;;;;22.07;19.67;;;;;;;6.42;68.66;100949.25;6232740;28;20772;-59
2020/12/01 02:22:47;;;;;;;24.77;21.13;;;;;;;6.53;67.94;100957.09;6236423;28;20235;-59
2020/12/01 02:26:10;;;;;;;22.87;20.40;;;;;;;6.47;68.27;100951.00;6240555;28;20508;-60
2020/12/01 02:29:33;;;;;;;23.83;20.67;;;;;;;6.46;67.82;100953.59;6231715;28;20224;-60
2020/12/01 02:32:53;;;;;;;24.20;19.93;;;;;;;6.55;67.72;100960.56;6239243;28;20232;-60
2020/12/01 02:36:14;;;;;;;23.80;19.60;;;;;;;6.49;68.13;100961.38;6231769;28;20688;-60
2020/12/01 02:39:35;;;;;;;22.90;18.93;;;;;;;6.71;67.09;100954.69;6235039;28;20228;-60
2020/12/01 02:42:57;;;;;;;22.77;19.13;;;;;;;6.65;67.32;100952.03;6232927;28;20305;-58
2020/12/01 02:46:17;;;;;;;24.40;20.77;;;;;;;6.67;67.33;100960.72;6232746;28;20551;-60
2020/12/01 02:49:37;;;;;;;24.40;21.80;;;;;;;6.43;68.20;100949.25;6234179;28;20323;-60
2020/12/01 02:52:57;;;;;;;24.73;20.97;;;;;;;6.78;66.70;100948.69;6246006;28;20636;-60
2020/12/01 02:56:18;;;;;;;24.90;19.60;;;;;;;6.86;66.27;100949.66;6220502;28;20221;-60
2020/12/01 02:59:39;;;;;;;25.77;20.73;;;;;;;6.61;67.60;100951.16;6238549;28;20232;-60
2020/12/01 03:02:59;;;;;;;23.43;19.83;;;;;;;6.77;67.17;100953.91;6250138;28;20279;-60
2020/12/01 03:06:20;;;;;;;22.80;20.27;;;;;;;6.97;66.15;100946.28;6231768;28;20602;-59
2020/12/01 03:09:41;;;;;;;27.47;22.77;;;;;;;6.50;67.98;100953.63;6248396;28;20272;-59
2020/12/01 03:13:01;;;;;;;24.67;19.47;;;;;;;6.74;67.15;100946.94;6237833;28;20236;-61
2020/12/01 03:16:22;;;;;;;26.63;22.00;;;;;;;6.53;68.33;100949.34;6202144;28;20222;-61
2020/12/01 03:19:42;;;;;;;24.37;20.33;;;;;;;6.35;68.83;100942.28;6215475;28;20229;-59
2020/12/01 03:23:02;;;;;;;25.00;21.73;;;;;;;6.56;68.19;100949.38;6242215;28;20228;-60
2020/12/01 03:26:23;;;;;;;24.40;21.37;;;;;;;6.63;68.04;100940.81;6227731;28;20263;-59
2020/12/01 03:29:43;;;;;;;27.30;22.13;;;;;;;6.39;69.06;100947.47;6247599;28;20229;-59
2020/12/01 03:33:04;;;;;;;25.37;21.57;;;;;;;6.70;67.52;100945.19;6245507;28;20633;-59
2020/12/01 03:36:25;;;;;;;28.27;21.97;;;;;;;6.80;67.07;100949.59;6218424;28;20232;-59
2020/12/01 03:39:46;;;;;;;25.60;18.97;;;;;;;6.81;67.21;100950.47;6260383;28;20221;-61
2020/12/01 03:43:06;;;;;;;26.03;21.53;;;;;;;6.83;66.66;100948.75;6250537;28;20326;-60
2020/12/01 03:46:26;;;;;;;24.70;20.80;;;;;;;6.84;66.48;100951.38;6221980;28;20228;-60
2020/12/01 03:49:47;;;;;;;24.20;21.03;;;;;;;6.70;67.52;100948.63;6235642;28;20255;-60
2020/12/01 03:53:08;;;;;;;22.70;18.97;;;;;;;6.75;67.11;100948.69;6247218;28;20552;-60
2020/12/01 03:56:28;;;;;;;24.97;19.80;;;;;;;6.95;66.30;100954.03;6225772;28;20237;-60
2020/12/01 03:59:49;;;;;;;25.33;22.00;;;;;;;6.92;66.77;100958.31;6254003;28;20610;-59
2020/12/01 04:03:09;;;;;;;26.40;21.73;;;;;;;6.88;66.78;100952.25;6259147;28;20232;-60
2020/12/01 04:06:30;;;;;;;25.90;21.73;;;;;;;6.67;67.67;100958.13;6221703;28;20248;-60
2020/12/01 04:09:50;;;;;;;26.87;21.00;;;;;;;6.70;67.30;100971.06;6253146;28;20223;-59
2020/12/01 04:13:11;;;;;;;25.87;22.23;;;;;;;6.69;67.44;100966.75;6242741;28;20216;-60
2020/12/01 04:16:31;;;;;;;26.83;22.63;;;;;;;6.58;68.42;100958.88;6222198;28;20323;-60
2020/12/01 04:19:51;;;;;;;28.10;22.93;;;;;;;6.54;68.12;100962.31;6252937;28;20323;-59
2020/12/01 04:23:12;;;;;;;27.87;22.30;;;;;;;6.79;66.94;100958.22;6251191;28;20231;-59
2020/12/01 04:26:33;;;;;;;26.03;20.73;;;;;;;6.86;66.75;100967.78;6224607;28;20237;-60
2020/12/01 04:29:53;;;;;;;26.23;22.40;;;;;;;6.98;65.92;100963.53;6260250;28;20534;-59
2020/12/01 04:33:13;;;;;;;26.10;21.17;;;;;;;7.05;65.98;100962.75;6247253;28;20597;-58
2020/12/01 04:36:34;;;;;;;27.27;22.53;;;;;;;6.74;66.95;100965.06;6224581;28;20231;-61
2020/12/01 04:39:55;;;;;;;27.57;22.50;;;;;;;6.80;66.96;100962.53;6251838;28;20228;-60
2020/12/01 04:43:23;;;;;;;26.07;21.43;;;;;;;6.45;68.29;100968.22;6265161;28;20306;-61
2020/12/01 04:46:44;;;;;;;25.53;21.83;;;;;;;6.69;67.42;100977.13;6231046;28;20231;-60
2020/12/01 04:50:08;;;;;;;27.80;21.67;;;;;;;6.74;67.25;100974.56;6258330;28;20322;-60
2020/12/01 04:54:02;;;;;;;27.40;23.50;;;;;;;6.68;67.63;100981.41;6232923;28;20273;-60
2020/12/01 04:57:38;;;;;;;24.60;21.33;;;;;;;6.97;66.46;100972.19;6211199;28;20236;-60
2020/12/01 05:01:07;;;;;;;26.63;22.90;;;;;;;6.96;66.45;100978.19;6232057;28;20233;-59
2020/12/01 05:04:33;;;;;;;26.97;22.33;;;;;;;7.18;65.40;100977.53;6230138;28;20217;-60
2020/12/01 05:08:14;;;;;;;26.70;21.77;;;;;;;7.12;65.57;100990.44;6248662;28;20227;-60
2020/12/01 05:11:55;;;;;;;26.33;20.83;;;;;;;6.96;66.14;100991.13;6226806;28;20232;-60
2020/12/01 05:15:22;;;;;;;27.60;20.80;;;;;;;6.98;66.19;100989.44;6246444;28;20249;-59
2020/12/01 05:18:42;;;;;;;28.93;23.03;;;;;;;7.00;65.86;100998.97;6250429;28;20273;-58
2020/12/01 05:22:02;;;;;;;27.30;19.97;;;;;;;6.97;65.83;100992.88;6234446;28;20238;-60
2020/12/01 05:25:25;;;;;;;24.30;19.23;;;;;;;7.05;66.09;101002.44;6251510;28;20232;-59
2020/12/01 05:28:48;;;;;;;22.83;20.33;;;;;;;6.95;66.12;101002.38;6252648;28;20322;-60
2020/12/01 05:32:09;;;;;;;26.90;22.80;;;;;;;6.73;67.25;101004.75;6227972;28;20224;-60
2020/12/01 05:35:32;;;;;;;22.80;19.57;;;;;;;6.76;67.00;101009.94;6246112;28;20225;-60
2020/12/01 05:39:00;;;;;;;24.73;21.17;;;;;;;6.76;66.98;101011.69;6247023;28;20515;-60
2020/12/01 05:42:20;;;;;;;29.97;22.67;;;;;;;6.67;67.60;101009.88;6238386;28;20227;-61
2020/12/01 05:45:40;;;;;;;28.00;20.40;;;;;;;6.69;67.46;101015.94;6249555;28;20229;-61
2020/12/01 05:49:06;;;;;;;23.50;19.47;;;;;;;6.86;67.01;101024.75;6243800;28;20232;-60
2020/12/01 05:52:29;;;;;;;23.70;19.60;;;;;;;7.03;66.35;101029.19;6237768;28;20260;-60
2020/12/01 05:56:06;;;;;;;28.33;21.90;;;;;;;6.98;66.26;101031.75;6241296;28;20420;-60
2020/12/01 05:59:26;;;;;;;24.17;21.60;;;;;;;7.03;65.96;101042.13;6233339;28;20253;-60
2020/12/01 06:02:55;;;;;;;28.20;25.33;;;;;;;6.74;67.12;101047.91;6248930;28;20753;-60
2020/12/01 06:06:16;;;;;;;23.90;20.97;;;;;;;6.77;66.83;101044.50;6232699;28;20228;-61
2020/12/01 06:10:16;;;;;;;27.43;22.30;;;;;;;6.84;66.63;101051.44;6228525;28;20580;-60
2020/12/01 06:13:42;;;;;;;27.93;24.60;;;;;;;6.82;66.42;101054.00;6241486;28;20600;-60
2020/12/01 06:17:07;;;;;;;23.40;19.93;;;;;;;6.90;66.55;101056.69;6227327;28;20227;-61
2020/12/01 06:20:32;;;;;;;24.30;20.67;;;;;;;7.08;65.65;101071.53;6243532;28;20229;-61
2020/12/01 06:24:14;;;;;;;25.97;20.93;;;;;;;6.97;66.37;101071.44;6258271;28;20225;-59
2020/12/01 06:28:10;;;;;;;25.10;21.47;;;;;;;6.79;66.73;101077.28;6248119;28;20239;-60
2020/12/01 06:31:57;;;;;;;23.70;20.03;;;;;;;7.05;65.75;101069.78;6201642;28;20256;-63
2020/12/01 06:35:55;;;;;;;23.97;20.03;;;;;;;6.99;65.87;101069.72;6240742;28;20233;-64
2020/12/01 06:39:28;;;;;;;28.53;20.97;;;;;;;7.15;65.27;101075.91;6236521;28;20229;-63
2020/12/01 06:42:53;;;;;;;24.23;20.17;;;;;;;7.05;65.93;101084.44;6240310;28;20235;-62
2020/12/01 06:46:32;;;;;;;31.57;23.83;;;;;;;7.14;65.46;101084.53;6240967;28;20252;-62
2020/12/01 06:49:55;;;;;;;25.87;21.57;;;;;;;7.11;65.56;101097.47;6231704;28;20270;-61
2020/12/01 06:53:26;;;;;;;24.80;19.77;;;;;;;7.29;64.67;101095.06;6247271;28;20227;-61
2020/12/01 06:56:59;;;;;;;24.13;20.70;;;;;;;7.24;65.03;101101.91;6236586;28;20239;-63
2020/12/01 07:00:27;;;;;;;27.63;20.53;;;;;;;7.09;65.96;101099.16;6249014;28;20224;-68
2020/12/01 07:03:47;;;;;;;23.73;20.30;;;;;;;7.02;65.81;101099.97;6232977;28;20257;-62
2020/12/01 07:07:22;;;;;;;23.70;21.17;;;;;;;7.01;65.99;101113.75;6237042;28;20311;-61
2020/12/01 07:10:45;;;;;;;23.93;21.23;;;;;;;7.11;65.42;101120.75;6257735;28;20348;-60
2020/12/01 07:14:18;;;;;;;23.30;19.63;;;;;;;7.05;65.40;101120.72;6245791;28;20233;-63
2020/12/01 07:17:49;;;;;;;22.50;18.90;;;;;;;7.05;65.65;101120.72;6245493;28;20222;-66
2020/12/01 07:21:22;;;;;;;27.17;20.30;;;;;;;7.07;65.21;101138.00;6245751;28;20252;-64
2020/12/01 07:24:49;;;;;;;22.30;19.73;;;;;;;7.04;65.45;101134.53;6226205;28;20244;-63
2020/12/01 07:28:21;;;;;;;22.57;19.00;;;;;;;7.27;64.93;101138.22;6254127;28;20263;-64
2020/12/01 07:31:42;;;;;;;21.17;18.03;;;;;;;7.34;64.44;101139.13;6234979;28;20334;-62
2020/12/01 07:35:12;;;;;;;23.70;19.90;;;;;;;7.18;64.96;101132.94;6234482;28;20252;-63
2020/12/01 07:38:36;;;;;;;20.50;18.23;;;;;;;7.34;64.63;101143.44;6244645;28;20231;-63
2020/12/01 07:41:58;;;;;;;21.40;17.93;;;;;;;7.46;63.88;101156.50;6227967;28;20247;-61
2020/12/01 07:45:19;;;;;;;24.03;19.07;;;;;;;7.44;64.14;101160.81;6252180;28;20236;-62
2020/12/01 07:48:40;;;;;;;22.47;19.50;;;;;;;7.39;64.25;101163.38;6247695;28;20220;-61
2020/12/01 07:52:15;;;;;;;24.57;19.83;;;;;;;7.18;64.42;101169.19;6230128;28;20680;-61
2020/12/01 07:55:41;;;;;;;21.90;18.43;;;;;;;7.16;64.83;101176.09;6238610;28;20232;-62
2020/12/01 07:59:06;;;;;;;22.30;17.53;;;;;;;7.07;65.41;101182.00;6253882;28;20331;-59
2020/12/01 08:02:29;;;;;;;24.17;19.47;;;;;;;7.30;64.75;101187.44;6227762;28;20227;-62
2020/12/01 08:05:51;;;;;;;21.07;17.73;;;;;;;7.39;64.49;101193.59;6230884;28;20896;-63
2020/12/01 08:09:20;;;;;;;23.93;19.60;;;;;;;7.56;63.96;101196.34;6234371;28;20233;-62
2020/12/01 08:12:46;;;;;;;25.00;20.10;;;;;;;7.40;64.13;101203.09;6233341;28;20219;-63
2020/12/01 08:16:14;;;;;;;23.77;21.17;;;;;;;7.27;64.39;101215.94;6236238;28;20851;-62
2020/12/01 08:19:35;;;;;;;21.13;18.83;;;;;;;7.26;64.53;101219.34;6242456;28;20235;-63
2020/12/01 08:23:03;;;;;;;24.53;19.50;;;;;;;7.38;64.36;101222.94;6219967;28;20271;-62
2020/12/01 08:26:27;;;;;;;26.47;19.93;;;;;;;7.47;63.92;101226.50;6190784;28;20305;-61
2020/12/01 08:29:49;;;;;;;25.27;20.23;;;;;;;7.48;64.12;101229.94;6227708;28;20230;-67
2020/12/01 08:33:18;;;;;;;23.67;20.17;;;;;;;7.49;63.54;101237.75;6220368;28;20223;-65
2020/12/01 08:36:56;;;;;;;24.80;20.40;;;;;;;7.30;64.47;101251.34;6201847;28;20236;-55
2020/12/01 08:40:28;;;;;;;23.90;18.77;;;;;;;7.37;64.21;101247.13;6248614;28;20653;-59
2020/12/01 08:43:52;;;;;;;21.90;17.67;;;;;;;7.50;64.14;101254.16;6258083;28;20228;-59
2020/12/01 08:47:13;;;;;;;23.17;17.63;;;;;;;7.46;64.07;101257.56;6222508;28;20228;-59
2020/12/01 08:50:37;;;;;;;23.13;18.93;;;;;;;7.38;64.21;101269.59;6225170;28;20233;-59
2020/12/01 08:54:08;;;;;;;24.93;19.00;;;;;;;7.19;64.94;101278.84;6240039;28;20297;-59
2020/12/01 08:57:36;;;;;;;21.83;18.53;;;;;;;7.54;63.97;101276.69;6220201;28;20224;-56
2020/12/01 09:00:59;;;;;;;22.90;19.03;;;;;;;7.72;63.53;101288.09;6236745;28;20219;-63
2020/12/01 09:04:23;;;;;;;25.27;19.47;;;;;;;7.71;63.51;101288.94;6234738;28;20606;-64
2020/12/01 09:07:45;;;;;;;22.20;18.70;;;;;;;7.78;63.28;101296.81;6242434;28;21989;-66
2020/12/01 09:15:09;;;;;;;22.83;17.93;;;;;;;7.57;63.97;101305.22;6223242;28;20261;-61
2020/12/01 09:18:47;;;;;;;22.80;18.73;;;;;;;7.74;63.21;101302.81;6239591;28;20256;-64
2020/12/01 09:22:10;;;;;;;23.73;18.83;;;;;;;7.85;63.12;101310.69;6226529;28;20319;-64
2020/12/01 09:25:31;;;;;;;26.47;21.20;;;;;;;7.75;63.39;101314.03;6212856;28;20218;-61
2020/12/01 09:28:53;;;;;;;25.07;19.90;;;;;;;7.60;64.07;101328.59;6208459;28;20602;-65
2020/12/01 09:32:18;;;;;;;28.30;21.17;;;;;;;7.51;64.19;101318.13;6203369;28;20229;-63
2020/12/01 09:35:39;;;;;;;28.83;22.80;;;;;;;7.62;63.75;101320.84;6213111;28;20236;-64
2020/12/01 09:38:59;;;;;;;25.57;19.03;;;;;;;7.74;63.72;101327.88;6224675;28;20233;-61
2020/12/01 09:42:26;;;;;;;24.53;20.03;;;;;;;7.60;64.01;101328.59;6212409;28;20233;-62
2020/12/01 09:45:49;;;;;;;25.17;20.73;;;;;;;7.65;63.66;101342.47;6231125;28;20312;-62
2020/12/01 09:49:10;;;;;;;23.70;20.27;;;;;;;7.69;63.68;101340.78;6249779;28;20241;-61
2020/12/01 09:52:37;;;;;;;24.73;18.70;;;;;;;7.66;63.79;101349.41;6246646;28;20749;-60
2020/12/01 09:56:06;;;;;;;26.43;20.47;;;;;;;7.78;63.60;101352.97;6237918;28;20522;-59
2020/12/01 09:59:39;;;;;;;23.87;20.37;;;;;;;7.80;63.47;101352.13;6226833;28;20264;-63
2020/12/01 10:03:55;;;;;;;23.03;19.27;;;;;;;7.82;63.37;101359.94;6239455;28;20227;-64
2020/12/01 10:15:07;;;;;;;25.77;20.40;;;;;;;7.92;63.14;101372.16;6238485;28;20521;-62
2020/12/01 10:36:16;;;;;;;25.30;19.77;;;;;;;8.09;62.39;101385.28;6182986;28;20348;-64
2020/12/01 10:39:37;;;;;;;25.10;20.83;;;;;;;8.09;62.32;101387.88;6190701;28;20229;-64
2020/12/01 10:42:57;;;;;;;26.30;20.47;;;;;;;8.11;62.42;101387.91;6214742;28;20224;-61
2020/12/01 10:46:18;;;;;;;22.13;19.37;;;;;;;8.18;61.83;101384.50;6220244;28;20414;-60
2020/12/01 10:49:38;;;;;;;25.17;19.83;;;;;;;8.02;62.40;101389.53;6227178;28;20228;-61
2020/12/01 10:53:00;;;;;;;25.30;20.10;;;;;;;8.12;62.32;101390.50;6236114;28;20539;-62
2020/12/01 10:56:21;;;;;;;25.03;19.97;;;;;;;8.18;62.14;101394.88;6216427;28;21791;-60
2020/12/01 10:59:41;;;;;;;26.20;21.53;;;;;;;8.16;61.86;101400.09;6222303;28;20233;-57
2020/12/01 11:03:02;;;;;;;26.77;20.47;;;;;;;8.21;61.92;101397.53;6230504;28;21083;-61
2020/12/01 11:06:22;;;;;;;24.17;20.33;;;;;;;8.22;62.14;101412.22;6211531;28;20237;-61
2020/12/01 11:09:43;;;;;;;24.83;18.00;;;;;;;8.30;61.82;101423.56;6223454;28;20233;-62
2020/12/01 11:13:04;;;;;;;32.37;21.43;;;;;;;8.31;61.78;101420.09;6222192;28;20242;-63
2020/12/01 11:16:24;;;;;;;27.47;22.13;;;;;;;8.37;61.49;101420.16;6201762;28;20236;-61
2020/12/01 11:19:45;;;;;;;23.93;20.50;;;;;;;8.20;61.90;101424.31;6234579;28;20228;-61
2020/12/01 11:23:05;;;;;;;24.43;19.60;;;;;;;8.27;61.97;101426.13;6222314;28;20259;-61
2020/12/01 11:26:26;;;;;;;26.53;20.17;;;;;;;8.32;61.66;101427.03;6206921;28;20371;-60
2020/12/01 11:29:46;;;;;;;24.77;19.03;;;;;;;8.27;62.05;101420.94;6229359;28;20295;-61
2020/12/01 11:33:06;;;;;;;26.30;20.87;;;;;;;8.33;61.97;101423.56;6240110;28;20232;-61
2020/12/01 11:36:27;;;;;;;26.67;21.03;;;;;;;8.39;61.60;101434.00;6211258;28;20637;-61
2020/12/01 11:39:48;;;;;;;27.40;20.80;;;;;;;8.40;61.70;101435.78;6243230;28;20220;-61
2020/12/01 11:43:09;;;;;;;22.90;19.50;;;;;;;8.45;61.65;101454.91;6238969;28;20247;-61
2020/12/01 11:46:29;;;;;;;28.57;21.30;;;;;;;8.45;61.31;101451.41;6205713;28;20229;-61
2020/12/01 11:49:49;;;;;;;22.20;18.17;;;;;;;8.37;61.87;101458.22;6238216;28;20229;-60
2020/12/01 11:53:10;;;;;;;24.23;18.47;;;;;;;8.36;61.80;101452.16;6230824;28;20223;-60
2020/12/01 11:56:30;;;;;;;21.40;18.20;;;;;;;8.35;61.34;101454.75;6209165;28;20244;-60
2020/12/01 11:59:51;;;;;;;22.67;18.67;;;;;;;8.31;61.72;101458.16;6238528;28;20240;-60
2020/12/01 12:03:11;;;;;;;19.93;16.47;;;;;;;8.29;61.64;101465.94;6231097;28;20842;-61
2020/12/01 12:06:32;;;;;;;23.10;17.83;;;;;;;8.30;61.91;101470.28;6206859;28;20232;-60
2020/12/01 12:09:52;;;;;;;21.03;17.63;;;;;;;8.31;61.67;101473.75;6234243;28;20220;-64
2020/12/01 12:13:13;;;;;;;21.57;18.50;;;;;;;8.30;61.87;101480.66;6233456;28;20621;-64
2020/12/01 12:16:35;;;;;;;21.50;17.27;;;;;;;8.33;61.97;101491.06;6205027;28;20828;-60
2020/12/01 12:19:55;;;;;;;21.97;17.70;;;;;;;8.37;61.32;101495.41;6225425;28;20524;-63
2020/12/01 12:23:16;;;;;;;24.27;17.77;;;;;;;8.36;61.42;101509.28;6232495;28;20228;-65
2020/12/01 12:26:36;;;;;;;20.90;17.20;;;;;;;8.34;61.70;101515.31;6206067;28;20569;-65
2020/12/01 12:29:56;;;;;;;21.00;16.63;;;;;;;8.42;61.82;101522.34;6225686;28;20343;-62
2020/12/01 12:33:18;;;;;;;20.70;16.93;;;;;;;8.45;61.79;101530.19;6232581;28;20280;-65
2020/12/01 12:36:38;;;;;;;17.97;15.37;;;;;;;8.50;61.18;101529.34;6212890;28;20249;-65
2020/12/01 12:39:59;;;;;;;20.27;16.30;;;;;;;8.51;61.38;101536.28;6236304;28;20231;-65
2020/12/01 12:43:20;;;;;;;19.47;16.23;;;;;;;8.52;61.28;101545.81;6232225;28;20238;-66
2020/12/01 12:46:40;;;;;;;21.23;16.40;;;;;;;8.47;61.50;101551.84;6208442;28;20229;-62
2020/12/01 12:50:01;;;;;;;20.50;16.17;;;;;;;8.44;61.25;101554.38;6233201;28;20236;-64
2020/12/01 12:53:22;;;;;;;22.30;16.67;;;;;;;8.27;61.96;101555.88;6232489;28;20776;-64
2020/12/01 12:56:42;;;;;;;24.00;18.57;;;;;;;8.29;61.93;101559.34;6216993;28;20240;-64
2020/12/01 13:00:05;;;;;;;24.33;19.30;;;;;;;8.18;62.29;101566.13;6239779;28;20237;-62
2020/12/01 13:03:26;;;;;;;21.57;17.87;;;;;;;8.25;62.07;101567.94;6226313;28;20262;-63
2020/12/01 13:06:47;;;;;;;23.77;17.00;;;;;;;8.21;62.21;101568.78;6214811;28;20353;-63
2020/12/01 13:10:08;;;;;;;22.93;17.10;;;;;;;8.25;61.91;101566.22;6237825;28;20241;-62
2020/12/01 13:13:28;;;;;;;25.03;17.93;;;;;;;8.30;61.93;101571.50;6238492;28;20737;-64
2020/12/01 13:16:49;;;;;;;23.37;18.17;;;;;;;8.34;61.63;101577.59;6214644;28;21823;-65
2020/12/01 13:20:14;;;;;;;19.53;16.80;;;;;;;8.25;62.32;101578.34;6238552;28;21999;-64
2020/12/01 13:23:36;;;;;;;22.90;16.87;;;;;;;8.27;62.04;101581.81;6241989;28;20861;-63
2020/12/01 13:26:56;;;;;;;20.63;15.73;;;;;;;8.16;62.17;101576.50;6219423;28;20235;-62
2020/12/01 13:30:19;;;;;;;21.00;15.77;;;;;;;8.02;62.76;101580.63;6233385;28;20739;-70
2020/12/01 13:33:39;;;;;;;19.07;14.53;;;;;;;8.19;61.78;101594.69;6239567;28;20291;-64
2020/12/01 13:37:00;;;;;;;21.33;16.63;;;;;;;8.22;61.99;101605.13;6218882;28;20264;-61
2020/12/01 13:40:24;;;;;;;20.97;16.30;;;;;;;8.08;62.82;101611.84;6233839;28;20319;-63
2020/12/01 13:43:46;;;;;;;22.13;17.47;;;;;;;7.91;63.23;101624.59;6237220;28;20247;-66
2020/12/01 13:47:07;;;;;;;20.27;16.03;;;;;;;8.07;62.72;101631.72;6221555;28;20579;-65
2020/12/01 13:50:30;;;;;;;23.00;18.40;;;;;;;8.14;62.29;101644.78;6230651;28;20217;-67
2020/12/01 13:53:50;;;;;;;21.67;17.63;;;;;;;8.04;62.73;101642.03;6237122;28;20249;-66
2020/12/01 13:57:12;;;;;;;24.13;17.10;;;;;;;8.09;62.57;101644.72;6220051;28;20240;-61
2020/12/01 14:00:33;;;;;;;23.23;17.27;;;;;;;8.03;63.00;101648.09;6229938;28;20228;-68
2020/12/01 14:03:53;;;;;;;22.13;17.00;;;;;;;8.03;62.91;101649.81;6235904;28;20239;-66
2020/12/01 14:07:14;;;;;;;19.97;17.53;;;;;;;8.17;62.33;101655.22;6219065;28;20689;-63
2020/12/01 14:10:35;;;;;;;26.43;17.80;;;;;;;8.09;62.73;101661.16;6228735;28;20233;-62
2020/12/01 14:13:56;;;;;;;26.37;17.93;;;;;;;7.97;63.32;101666.16;6235432;28;20831;-65
2020/12/01 14:17:17;;;;;;;24.27;17.73;;;;;;;8.01;63.17;101673.16;6213339;28;20332;-63
2020/12/01 14:20:37;;;;;;;21.83;17.93;;;;;;;8.17;62.37;101681.16;6225525;28;20236;-63
2020/12/01 14:23:57;;;;;;;23.67;16.93;;;;;;;8.17;62.34;101687.22;6238772;28;20500;-62
2020/12/01 14:27:18;;;;;;;26.43;20.17;;;;;;;7.97;63.20;101691.22;6219186;28;20232;-66
2020/12/01 14:30:39;;;;;;;22.40;18.30;;;;;;;8.00;63.43;101697.31;6230549;28;20240;-63
2020/12/01 14:34:00;;;;;;;25.47;18.90;;;;;;;8.14;62.65;101694.06;6225844;28;20610;-66
2020/12/01 14:37:21;;;;;;;27.30;20.57;;;;;;;8.24;62.42;101695.97;6221412;28;20232;-64
2020/12/01 14:40:41;;;;;;;26.47;20.07;;;;;;;8.13;62.60;101695.81;6227793;28;20611;-68
2020/12/01 14:44:02;;;;;;;23.43;19.23;;;;;;;8.25;62.21;101702.91;6197330;28;20238;-66
2020/12/01 14:47:33;;;;;;;23.93;20.17;;;;;;;8.16;62.41;101702.75;6206375;28;20242;-65
2020/12/01 14:51:37;;;;;;;25.47;19.60;;;;;;;8.14;62.50;101704.44;6197202;28;20228;-63
2020/12/01 14:55:06;;;;;;;26.30;20.03;;;;;;;8.16;62.45;101718.31;6212984;28;20228;-63
2020/12/01 14:58:57;;;;;;;25.50;20.73;;;;;;;8.15;62.45;101714.00;6236891;28;20759;-66
2020/12/01 15:02:36;;;;;;;30.88;25.85;;;;;;;7.68;64.30;101726.22;6230988;28;21252;-61
2020/12/01 15:06:05;;;;;;;27.50;22.53;;;;;;;7.74;64.05;101732.34;6225841;28;20613;-61
2020/12/01 15:09:37;;;;;;;32.67;23.70;;;;;;;7.82;64.00;101743.72;6213117;28;20252;-68
2020/12/01 15:12:59;;;;;;;28.83;22.30;;;;;;;7.97;63.24;101744.00;6228842;28;20230;-61
2020/12/01 15:16:22;;;;;;;36.63;24.80;;;;;;;8.05;63.01;101750.16;6221620;28;20229;-61
2020/12/01 15:19:44;;;;;;;32.60;23.53;;;;;;;7.90;63.49;101762.88;6236536;28;20232;-62
2020/12/01 15:23:29;;;;;;;32.67;24.53;;;;;;;8.03;63.34;101753.59;6242639;28;20219;-64
2020/12/01 15:26:50;;;;;;;36.13;24.97;;;;;;;7.94;63.34;101764.69;6229178;28;20227;-61
2020/12/01 15:30:13;;;;;;;29.47;21.27;;;;;;;8.12;62.59;101779.66;6255575;28;20240;-62
2020/12/01 15:33:34;;;;;;;37.53;26.30;;;;;;;8.13;62.64;101780.56;6251388;28;20230;-62
2020/12/01 15:36:57;;;;;;;38.60;27.90;;;;;;;8.14;62.80;101782.28;6239439;28;20551;-62
2020/12/01 15:40:42;;;;;;;32.33;23.80;;;;;;;8.02;63.05;101789.00;6248670;28;20236;-62
2020/12/01 15:44:05;;;;;;;42.37;27.73;;;;;;;8.12;62.45;101784.84;6255765;28;20228;-62
2020/12/01 15:47:26;;;;;;;36.30;24.77;;;;;;;8.14;62.63;101793.53;6241258;28;20231;-61
2020/12/01 15:51:01;;;;;;;35.50;24.57;;;;;;;8.15;62.25;101799.63;6249714;28;20314;-62
2020/12/01 15:54:53;;;;;;;34.77;25.43;;;;;;;8.21;61.95;101810.97;6241257;28;20499;-62
2020/12/01 15:58:47;;;;;;;36.43;26.17;;;;;;;8.22;62.24;101817.00;6253479;28;20505;-61
2020/12/01 16:02:28;;;;;;;36.80;25.57;;;;;;;8.10;62.54;101817.69;6226551;28;20242;-62
2020/12/01 16:05:57;;;;;;;37.23;26.10;;;;;;;8.12;62.57;101815.13;6238575;28;20228;-62
2020/12/01 16:09:58;;;;;;;36.57;27.90;;;;;;;8.19;62.34;101823.03;6245435;28;20229;-61